Airfield :







YOU CAN JOIN US ON...

 
LOGIN :

Register | Disclaimer

   EN    FR    IT 

 









Legend :    VFR   Marginal VFR   IFR   Intensive IFR   Very Intensive IFR
Visi :
Ceiling :
>= 8 km
>= 3000ft
5 to 8 km
1000 to 3000 ft
1500m to 5 km
500 to 1000 ft
800 to 1500m
200 to 500 ft
< 800m
< 200 ft
Symbols :   Thunderstorms  Fog  Heavy snow  Heavy precipitations  Wind > 20 kt






- Airport Elevation : 377 ft
- IATA code : YPS


CYPD - Port Hawkesbury

CURRENT METAR :
  • 100858Z AUTO 09019G32KT 2SM -SN OVC006 00/M00 A2907 RMK VIS VRB 1 1/2-3 ICG PAST HR SLP850

EXPIRED METARs :
  • 100808Z AUTO 08024G35KT 1 1/4SM -SN OVC005 00/M00 A2913 RMK ICG PRESFR SLP870
  • 100724Z AUTO 09022G28KT 1 1/4SM -SN BKN007 OVC011 M00/M01 A2923 RMK PRESFR SLP903
  • 100703Z AUTO 08018G30KT 1 3/4SM -SN FEW013 SCT019 OVC023 M00/M02 A2926 RMK PRESFR SLP916
  • 100651Z AUTO 09020G31KT 9SM -RA BKN024 OVC040 00/M03 A2928 RMK PRESFR SLP920
  • 100643Z AUTO 09019G30KT 9SM BKN024 BKN037 OVC050 00/M03 A2929 RMK SLP926
  • 100635Z AUTO 09021G31KT 9SM SCT024 BKN039 BKN055 OVC066 00/M03 A2930 RMK PRESFR SLP927
  • 100600Z AUTO 08016G27KT 9SM OVC065 M00/M02 A2934 RMK PRESFR SLP940

TAF N/A



MET'MAP, your aeronautical weather chart ! - Copyright ORBIFLY December 2007 - Disclaimer

ORBIFLY MET'MAP TEAM :

Programming & Development : Alexandra Zaïnal
Concept & original design : Baudouin d'Aumeries
Assistance for programming : Marc-Olivier Méhu
Technical & hardware support : Manuel Goepfert

Contact : metmap@orbifly.com




SOURCES & CREDITS :

   NOAA